Time;durP1;ratioP1;P1;durP2;ratioP2;P2;SDS_P1;SDS_P2;PMS_P1;PMS_P2;Temp;Humidity;BMP_temperature;BMP_pressure;BME280_temperature;BME280_humidity;BME280_pressure;Samples;Min_cycle;Max_cycle;Signal;HPM_P1;HPM_P2
2022/06/16 00:02:04;;;;;;;9.02;4.18;;;25.00;99.90;;;;;;5036407;28;20041;-80
2022/06/16 00:04:31;;;;;;;6.63;3.47;;;25.00;99.90;;;;;;5041138;28;20131;-74
2022/06/16 00:06:59;;;;;;;9.48;3.45;;;24.90;99.90;;;;;;5074998;28;20042;-78
2022/06/16 00:09:26;;;;;;;10.77;3.95;;;25.00;99.90;;;;;;5057032;28;20029;-74
2022/06/16 00:11:54;;;;;;;10.65;3.42;;;25.00;99.90;;;;;;5074346;28;20131;-80
2022/06/16 00:14:23;;;;;;;7.55;3.30;;;24.90;99.90;;;;;;5067038;28;20040;-74
2022/06/16 00:16:51;;;;;;;9.40;3.45;;;24.90;99.90;;;;;;5050122;28;20033;-75
2022/06/16 00:19:17;;;;;;;8.25;3.60;;;24.90;99.90;;;;;;5039910;28;20037;-74
2022/06/16 00:21:43;;;;;;;8.95;3.78;;;24.90;99.90;;;;;;5042145;28;20044;-74
2022/06/16 00:24:09;;;;;;;9.13;3.60;;;24.90;99.90;;;;;;5067446;28;20052;-76
2022/06/16 00:26:35;;;;;;;7.45;3.40;;;25.00;99.90;;;;;;5041233;28;20163;-75
2022/06/16 00:29:01;;;;;;;10.75;3.53;;;25.00;99.90;;;;;;5048808;28;20498;-74
2022/06/16 00:31:27;;;;;;;7.60;3.58;;;24.90;99.90;;;;;;5045251;28;20403;-74
2022/06/16 00:33:53;;;;;;;7.30;3.58;;;24.80;99.90;;;;;;5076891;28;20067;-74
2022/06/16 00:36:20;;;;;;;13.80;3.72;;;24.80;99.90;;;;;;5077348;28;20029;-77
2022/06/16 00:38:47;;;;;;;8.60;3.33;;;24.80;99.90;;;;;;5048583;28;20032;-74
2022/06/16 00:41:13;;;;;;;10.77;3.30;;;24.70;99.90;;;;;;5046360;28;20041;-77
2022/06/16 00:43:39;;;;;;;8.15;3.45;;;24.70;99.90;;;;;;5040538;28;20040;-75
2022/06/16 00:46:17;;;;;;;9.50;3.50;;;24.80;99.90;;;;;;5035180;28;20033;-74
2022/06/16 00:48:55;;;;;;;7.95;3.30;;;24.70;99.90;;;;;;5072322;28;20048;-74
2022/06/16 00:51:48;;;;;;;6.18;3.30;;;24.70;99.90;;;;;;5041248;28;20087;-76
2022/06/16 00:54:22;;;;;;;8.48;2.97;;;24.70;99.90;;;;;;5048879;28;20029;-77
2022/06/16 00:56:51;;;;;;;13.90;3.33;;;24.70;99.90;;;;;;5042651;28;20041;-80
2022/06/16 00:59:20;;;;;;;9.88;3.78;;;24.70;99.90;;;;;;5054250;28;20041;-79
2022/06/16 01:01:48;;;;;;;5.88;2.65;;;24.70;99.90;;;;;;5068387;28;20048;-79
2022/06/16 01:07:04;;;;;;;9.32;4.00;;;24.70;99.90;;;;;;5040827;28;20072;-75
2022/06/16 01:09:34;;;;;;;7.47;3.58;;;24.80;99.90;;;;;;5059166;28;20095;-74
2022/06/16 01:15:11;;;;;;;9.70;3.70;;;24.70;99.90;;;;;;5061361;28;20047;-73
2022/06/16 01:17:48;;;;;;;9.13;3.38;;;24.60;99.90;;;;;;5074114;28;20452;-75
2022/06/16 01:20:52;;;;;;;11.25;3.40;;;24.60;99.90;;;;;;5062315;28;20772;-78
2022/06/16 01:23:36;;;;;;;8.90;3.75;;;24.60;99.90;;;;;;5074646;28;20534;-77
2022/06/16 01:26:47;;;;;;;7.07;3.20;;;24.50;99.90;;;;;;5062408;28;20090;-75
2022/06/16 01:29:53;;;;;;;8.95;3.20;;;24.60;99.90;;;;;;5036961;28;20112;-76
2022/06/16 01:32:40;;;;;;;10.18;3.60;;;24.70;99.90;;;;;;5046277;28;20074;-79
2022/06/16 01:35:26;;;;;;;9.13;3.53;;;24.60;99.90;;;;;;5068077;28;20061;-76
2022/06/16 01:38:18;;;;;;;8.93;3.75;;;24.50;99.90;;;;;;5071902;28;20033;-79
2022/06/16 01:40:56;;;;;;;7.63;3.55;;;24.40;99.90;;;;;;5058872;28;20033;-76
2022/06/16 01:43:29;;;;;;;9.23;3.28;;;24.40;99.90;;;;;;5062470;28;22831;-75
2022/06/16 01:45:55;;;;;;;10.45;2.88;;;24.30;99.90;;;;;;5060913;28;20046;-76
2022/06/16 01:48:24;;;;;;;10.98;3.15;;;24.30;99.90;;;;;;5073807;28;20037;-71
2022/06/16 01:51:35;;;;;;;8.50;2.60;;;24.40;99.90;;;;;;5057017;28;20097;-71
2022/06/16 01:54:22;;;;;;;5.82;2.50;;;24.50;99.90;;;;;;5034083;28;20131;-70
2022/06/16 01:57:22;;;;;;;9.82;2.80;;;24.40;99.90;;;;;;5063775;28;20348;-74
2022/06/16 02:00:11;;;;;;;9.48;2.90;;;24.40;99.90;;;;;;5070406;28;20032;-75
2022/06/16 02:02:41;;;;;;;8.35;2.42;;;24.30;99.90;;;;;;5054978;28;20041;-71
2022/06/16 02:05:24;;;;;;;7.50;2.75;;;24.30;99.90;;;;;;5049183;28;20037;-71
2022/06/16 02:08:16;;;;;;;8.95;2.55;;;24.30;99.90;;;;;;5063635;28;20045;-72
2022/06/16 02:10:51;;;;;;;6.00;2.37;;;24.30;99.90;;;;;;5059283;28;20444;-73
2022/06/16 02:13:25;;;;;;;9.18;2.65;;;24.20;99.90;;;;;;5058322;28;20777;-75
2022/06/16 02:16:05;;;;;;;6.18;2.22;;;24.30;99.90;;;;;;5069438;28;20393;-72
2022/06/16 02:18:39;;;;;;;9.18;2.78;;;24.30;99.90;;;;;;5048193;28;20049;-72
2022/06/16 02:21:08;;;;;;;5.28;2.15;;;24.20;99.90;;;;;;5040040;28;20384;-70
2022/06/16 02:23:36;;;;;;;7.50;2.47;;;24.30;99.90;;;;;;5066017;28;20036;-71
2022/06/16 02:26:02;;;;;;;8.23;2.25;;;24.20;99.90;;;;;;5049257;28;20036;-71
2022/06/16 02:28:30;;;;;;;10.93;2.92;;;24.20;99.90;;;;;;5049919;28;20662;-70
2022/06/16 02:31:19;;;;;;;10.90;2.08;;;24.20;99.90;;;;;;5089659;28;20051;-72
2022/06/16 02:34:04;;;;;;;5.95;2.10;;;24.20;99.90;;;;;;5070749;28;20495;-73
2022/06/16 02:36:59;;;;;;;7.32;2.60;;;24.10;99.90;;;;;;5049109;28;20128;-71
2022/06/16 02:39:55;;;;;;;7.18;2.30;;;24.20;99.90;;;;;;5038228;28;20116;-77
2022/06/16 02:43:08;;;;;;;7.05;2.22;;;24.30;99.90;;;;;;5067909;28;20036;-76
2022/06/16 02:45:34;;;;;;;7.20;2.33;;;24.30;99.90;;;;;;5030761;28;20067;-77
2022/06/16 02:48:31;;;;;;;7.65;2.10;;;24.40;99.90;;;;;;5058253;28;20500;-72
2022/06/16 02:51:40;;;;;;;6.32;2.40;;;24.40;99.90;;;;;;5038264;28;20040;-71
2022/06/16 02:55:13;;;;;;;7.35;2.65;;;24.40;99.90;;;;;;5037514;28;20065;-71
2022/06/16 02:57:42;;;;;;;11.60;3.00;;;24.40;99.90;;;;;;5015108;28;20029;-71
2022/06/16 03:00:12;;;;;;;8.82;3.22;;;24.40;99.90;;;;;;5071642;28;20033;-76
2022/06/16 03:02:41;;;;;;;6.88;2.85;;;24.50;99.90;;;;;;5059021;28;20033;-71
2022/06/16 03:05:09;;;;;;;6.95;2.10;;;24.50;99.90;;;;;;5044323;28;20123;-74
2022/06/16 03:07:36;;;;;;;9.00;2.60;;;24.70;99.90;;;;;;5068151;28;20037;-72
2022/06/16 03:10:06;;;;;;;9.63;2.80;;;24.80;99.90;;;;;;5039412;28;20551;-72
2022/06/16 03:12:32;;;;;;;9.95;2.30;;;25.00;99.90;;;;;;5028487;28;20062;-72
2022/06/16 03:14:58;;;;;;;6.72;2.65;;;25.00;99.90;;;;;;5067774;28;20044;-72
2022/06/16 03:17:26;;;;;;;10.35;2.22;;;24.90;99.90;;;;;;5043976;28;20156;-73
2022/06/16 03:19:52;;;;;;;6.75;2.10;;;24.90;99.90;;;;;;5059594;28;20120;-72
2022/06/16 03:22:18;;;;;;;7.35;2.60;;;25.00;99.90;;;;;;5041154;28;20029;-72
2022/06/16 03:24:46;;;;;;;9.32;2.42;;;24.90;99.90;;;;;;5028753;28;20113;-70
2022/06/16 03:27:12;;;;;;;9.50;2.55;;;24.90;99.90;;;;;;5068956;28;20476;-74
2022/06/16 03:29:39;;;;;;;5.38;2.45;;;24.80;99.90;;;;;;5043874;28;20044;-74
2022/06/16 03:32:06;;;;;;;6.15;2.63;;;24.90;99.90;;;;;;5086956;28;20038;-75
2022/06/16 03:34:32;;;;;;;10.68;2.88;;;24.80;99.90;;;;;;5063501;28;20040;-80
2022/06/16 03:36:58;;;;;;;7.88;2.60;;;24.80;99.90;;;;;;5064978;28;20040;-74
2022/06/16 03:39:25;;;;;;;10.07;2.30;;;24.70;99.90;;;;;;5074456;28;20174;-74
2022/06/16 03:41:51;;;;;;;8.40;2.10;;;24.90;99.90;;;;;;5063078;28;20056;-71
2022/06/16 03:44:17;;;;;;;5.15;2.10;;;24.80;99.90;;;;;;5051588;28;20049;-70
2022/06/16 03:46:43;;;;;;;7.28;2.20;;;24.80;99.90;;;;;;5081191;28;20111;-71
2022/06/16 03:49:09;;;;;;;7.85;2.22;;;24.70;99.90;;;;;;5053320;28;20524;-77
2022/06/16 03:51:35;;;;;;;10.55;2.40;;;24.70;99.90;;;;;;5057803;28;20527;-71
2022/06/16 03:54:02;;;;;;;5.65;2.08;;;24.70;99.90;;;;;;5067184;28;20037;-71
2022/06/16 03:56:28;;;;;;;13.63;3.63;;;24.70;99.90;;;;;;5049600;28;20140;-75
2022/06/16 03:58:56;;;;;;;8.60;3.15;;;24.70;99.90;;;;;;5026805;28;20043;-72
2022/06/16 04:01:22;;;;;;;7.13;3.17;;;24.70;99.90;;;;;;5046540;28;20037;-78
2022/06/16 04:04:00;;;;;;;7.50;2.70;;;24.70;99.90;;;;;;5048247;28;20037;-72
2022/06/16 04:06:32;;;;;;;11.35;2.55;;;24.70;99.90;;;;;;5037825;28;20034;-75
2022/06/16 04:08:59;;;;;;;7.63;2.17;;;24.60;99.90;;;;;;5058093;28;20037;-77
2022/06/16 04:11:30;;;;;;;7.63;2.35;;;24.60;99.90;;;;;;5082862;28;20045;-72
2022/06/16 04:14:09;;;;;;;6.10;2.25;;;24.60;99.90;;;;;;5048052;28;20034;-70
2022/06/16 04:16:58;;;;;;;11.68;3.00;;;24.60;99.90;;;;;;5096544;28;20029;-76
2022/06/16 04:19:25;;;;;;;9.05;2.13;;;24.60;99.90;;;;;;5038610;28;20516;-71
2022/06/16 04:21:54;;;;;;;6.57;2.10;;;24.60;99.90;;;;;;5041735;28;20072;-77
2022/06/16 04:24:21;;;;;;;7.97;2.72;;;24.70;99.90;;;;;;5038445;28;20041;-75
2022/06/16 04:26:51;;;;;;;8.50;2.70;;;24.60;99.90;;;;;;5044549;28;20044;-71
2022/06/16 04:29:18;;;;;;;8.32;2.83;;;24.70;99.90;;;;;;5041144;28;20045;-71
2022/06/16 04:31:46;;;;;;;10.48;3.72;;;24.70;99.90;;;;;;5048021;28;20087;-71
2022/06/16 04:34:12;;;;;;;13.85;3.50;;;24.70;99.90;;;;;;5038903;28;20048;-72
2022/06/16 04:36:39;;;;;;;8.35;2.90;;;24.70;99.90;;;;;;5039699;28;20037;-71
2022/06/16 04:39:05;;;;;;;7.43;3.10;;;24.60;99.90;;;;;;5055022;28;20066;-71
2022/06/16 04:41:31;;;;;;;9.05;3.55;;;24.70;99.90;;;;;;5033938;28;20068;-74
2022/06/16 04:43:57;;;;;;;8.52;3.38;;;24.70;99.90;;;;;;5039305;28;20450;-73
2022/06/16 04:46:26;;;;;;;10.70;2.75;;;24.70;99.90;;;;;;5041220;28;20036;-71
2022/06/16 04:48:52;;;;;;;7.05;2.88;;;24.70;99.90;;;;;;5037634;28;20055;-72
2022/06/16 04:51:19;;;;;;;9.88;3.13;;;24.80;99.90;;;;;;5044020;28;20481;-71
2022/06/16 04:53:45;;;;;;;10.52;2.85;;;24.90;99.90;;;;;;5064342;28;20497;-76
2022/06/16 04:56:11;;;;;;;11.07;3.00;;;24.80;99.90;;;;;;5064629;28;20033;-73
2022/06/16 04:58:39;;;;;;;13.63;9.48;;;24.90;99.90;;;;;;5070591;28;20388;-71
2022/06/16 05:01:06;;;;;;;8.35;2.97;;;25.00;99.90;;;;;;5070605;28;20140;-73
2022/06/16 05:03:32;;;;;;;9.65;2.55;;;25.00;99.90;;;;;;5069227;28;20111;-71
2022/06/16 05:05:58;;;;;;;10.55;3.22;;;25.10;99.70;;;;;;5082135;28;20673;-73
2022/06/16 05:08:24;;;;;;;9.85;2.72;;;25.00;99.80;;;;;;5047936;28;20140;-75
2022/06/16 05:10:51;;;;;;;11.95;2.95;;;25.10;99.30;;;;;;5078558;28;20137;-74
2022/06/16 05:13:19;;;;;;;6.90;2.30;;;25.10;99.30;;;;;;5046311;28;20580;-70
2022/06/16 05:15:45;;;;;;;12.43;3.10;;;25.20;98.70;;;;;;5051733;28;20087;-73
2022/06/16 05:18:14;;;;;;;7.43;2.67;;;25.30;98.90;;;;;;5041304;28;20068;-70
2022/06/16 05:20:41;;;;;;;9.05;3.10;;;25.30;98.60;;;;;;5061484;28;20036;-72
2022/06/16 05:23:10;;;;;;;7.70;2.67;;;25.50;98.80;;;;;;5055930;28;20044;-72
2022/06/16 05:25:37;;;;;;;8.43;2.90;;;25.40;98.70;;;;;;5076506;28;20067;-76
2022/06/16 05:28:05;;;;;;;7.93;2.63;;;25.50;98.60;;;;;;5073931;28;20127;-71
2022/06/16 05:30:32;;;;;;;11.27;4.90;;;25.50;98.30;;;;;;5073344;28;20036;-73
2022/06/16 05:33:00;;;;;;;12.20;3.22;;;25.60;98.30;;;;;;5071144;28;20121;-72
2022/06/16 05:35:28;;;;;;;9.90;3.03;;;25.60;98.30;;;;;;5059314;28;20032;-72
2022/06/16 05:37:53;;;;;;;10.35;3.10;;;25.70;98.60;;;;;;5035675;28;20037;-77
2022/06/16 05:40:23;;;;;;;12.90;3.17;;;25.70;98.70;;;;;;5062034;28;20073;-73
2022/06/16 05:42:49;;;;;;;7.80;2.92;;;25.80;98.80;;;;;;5046414;28;20467;-73
2022/06/16 05:45:14;;;;;;;9.68;2.90;;;25.90;98.60;;;;;;5043913;28;20052;-72
2022/06/16 05:47:41;;;;;;;10.60;2.70;;;26.00;98.40;;;;;;5037075;28;20072;-72
2022/06/16 05:50:10;;;;;;;13.88;3.00;;;26.00;98.30;;;;;;5039831;28;20440;-74
2022/06/16 05:52:37;;;;;;;7.88;2.20;;;26.10;97.60;;;;;;5051388;28;20057;-76
2022/06/16 05:55:05;;;;;;;11.15;2.72;;;26.20;97.50;;;;;;5064535;28;20037;-73
2022/06/16 05:57:32;;;;;;;8.82;2.70;;;26.30;97.70;;;;;;5038799;28;20033;-76
2022/06/16 05:59:59;;;;;;;8.80;2.92;;;26.30;97.70;;;;;;5036790;28;20041;-72
2022/06/16 06:02:25;;;;;;;7.90;2.70;;;26.50;97.50;;;;;;5041085;28;20131;-78
2022/06/16 06:04:53;;;;;;;9.63;3.10;;;26.60;97.30;;;;;;5050012;28;20067;-75
2022/06/16 06:07:19;;;;;;;8.35;3.03;;;26.60;97.50;;;;;;5070741;28;20037;-77
2022/06/16 06:18:06;;;;;;;7.18;2.97;;;26.90;96.80;;;;;;5046014;28;20043;-77
2022/06/16 06:20:32;;;;;;;7.55;2.67;;;27.00;96.40;;;;;;5035343;28;20036;-71
2022/06/16 06:22:59;;;;;;;14.10;3.47;;;27.10;96.40;;;;;;5054244;28;20063;-75
2022/06/16 06:25:25;;;;;;;11.57;3.15;;;27.20;96.50;;;;;;5065211;28;20051;-72
2022/06/16 06:27:52;;;;;;;14.70;3.25;;;27.30;96.60;;;;;;5066395;28;20045;-72
2022/06/16 06:30:22;;;;;;;10.40;3.67;;;27.40;96.80;;;;;;5052316;28;20037;-77
2022/06/16 06:32:49;;;;;;;8.23;3.13;;;27.40;97.00;;;;;;5054767;28;20068;-77
2022/06/16 06:35:16;;;;;;;11.98;3.75;;;27.50;97.00;;;;;;5059110;28;20036;-74
2022/06/16 06:37:45;;;;;;;32.13;19.85;;;27.60;97.00;;;;;;5067274;28;20199;-79
2022/06/16 06:40:23;;;;;;;36.97;11.43;;;27.60;96.90;;;;;;5050158;28;20123;-75
2022/06/16 06:42:49;;;;;;;39.33;5.40;;;27.70;96.90;;;;;;5071436;28;20068;-77
2022/06/16 06:45:17;;;;;;;88.00;9.27;;;27.80;97.10;;;;;;5076115;28;20490;-80
2022/06/16 06:47:45;;;;;;;12.45;3.95;;;27.90;96.60;;;;;;5065225;28;20060;-78
2022/06/16 06:50:30;;;;;;;12.82;4.05;;;28.00;96.60;;;;;;5076431;28;20067;-74
2022/06/16 06:52:56;;;;;;;64.00;8.02;;;28.10;96.50;;;;;;5077366;28;20247;-79
2022/06/16 06:55:22;;;;;;;59.15;7.50;;;28.10;96.30;;;;;;5052089;28;20041;-78
2022/06/16 06:57:52;;;;;;;12.80;3.50;;;28.20;96.70;;;;;;5066909;28;20509;-80
2022/06/16 07:00:23;;;;;;;55.92;6.85;;;28.30;95.50;;;;;;5066905;28;20040;-77
2022/06/16 07:02:49;;;;;;;23.40;4.80;;;28.40;95.90;;;;;;5061764;28;20524;-78
2022/06/16 07:05:15;;;;;;;100.50;9.48;;;28.40;95.30;;;;;;5081019;28;20363;-83
2022/06/16 07:07:43;;;;;;;53.78;7.18;;;28.50;95.20;;;;;;5060362;28;20075;-78
2022/06/16 07:10:11;;;;;;;147.02;13.00;;;28.60;94.80;;;;;;5062013;28;20040;-81
2022/06/16 07:12:37;;;;;;;79.85;9.25;;;28.70;94.60;;;;;;5082681;28;20067;-76
2022/06/16 07:15:06;;;;;;;25.65;4.80;;;28.80;94.30;;;;;;5074849;28;20130;-82
2022/06/16 07:17:32;;;;;;;383.35;39.55;;;28.90;93.90;;;;;;5078418;28;20040;-82
2022/06/16 07:19:59;;;;;;;68.55;9.07;;;29.00;94.20;;;;;;5067432;28;20135;-81
2022/06/16 07:22:26;;;;;;;19.33;3.45;;;29.00;93.90;;;;;;5061232;28;20488;-79
2022/06/16 07:24:52;;;;;;;48.35;6.28;;;29.20;91.80;;;;;;5064506;28;20041;-78
2022/06/16 07:27:19;;;;;;;47.47;6.53;;;29.40;92.60;;;;;;5079732;28;20043;-81
2022/06/16 07:29:49;;;;;;;39.63;5.95;;;29.50;92.20;;;;;;5068615;28;20029;-82
2022/06/16 07:32:22;;;;;;;289.98;24.88;;;29.60;92.40;;;;;;5080054;28;20037;-82
2022/06/16 07:34:49;;;;;;;81.55;9.95;;;29.60;92.30;;;;;;5064927;28;20060;-82
2022/06/16 07:37:15;;;;;;;28.17;4.22;;;29.70;92.40;;;;;;5059655;28;20100;-78
2022/06/16 07:39:41;;;;;;;19.40;3.28;;;29.90;91.00;;;;;;5056999;28;20120;-81
2022/06/16 07:42:08;;;;;;;29.80;5.20;;;30.00;90.80;;;;;;5051748;28;20049;-78
2022/06/16 07:44:36;;;;;;;15.00;2.53;;;30.10;90.70;;;;;;5056865;28;20048;-81
2022/06/16 07:47:05;;;;;;;11.00;2.72;;;30.10;90.00;;;;;;5055947;28;20039;-79
2022/06/16 07:49:32;;;;;;;32.75;4.35;;;30.10;90.10;;;;;;5075635;28;20037;-80
2022/06/16 07:52:00;;;;;;;13.25;2.90;;;30.20;90.60;;;;;;5075056;28;20103;-76
2022/06/16 07:54:28;;;;;;;25.48;3.90;;;30.20;91.00;;;;;;5064828;28;20059;-80
2022/06/16 07:56:53;;;;;;;36.42;4.60;;;30.20;91.00;;;;;;5090128;28;20055;-83
2022/06/16 07:59:20;;;;;;;50.58;6.65;;;30.20;91.20;;;;;;5086535;28;20068;-81
2022/06/16 08:01:46;;;;;;;26.05;4.57;;;30.20;91.10;;;;;;5064329;28;20090;-82
2022/06/16 08:04:12;;;;;;;277.65;27.90;;;30.30;91.10;;;;;;5047183;28;20056;-84
2022/06/16 08:06:41;;;;;;;36.65;5.65;;;30.40;91.10;;;;;;5070684;28;20533;-79
2022/06/16 08:09:13;;;;;;;71.15;8.70;;;30.50;90.40;;;;;;5068539;28;20057;-80
2022/06/16 08:14:24;;;;;;;44.17;5.38;;;30.70;90.70;;;;;;5071533;28;20036;-79
2022/06/16 08:16:50;;;;;;;115.47;10.73;;;30.70;89.30;;;;;;5085092;28;20036;-79
2022/06/16 08:19:18;;;;;;;81.00;8.75;;;30.80;88.70;;;;;;5053654;28;20420;-77
2022/06/16 08:21:44;;;;;;;12.90;3.22;;;30.80;88.00;;;;;;5064400;28;20055;-79
2022/06/16 08:24:11;;;;;;;12.80;3.08;;;30.80;88.10;;;;;;5074275;28;20045;-82
2022/06/16 08:26:37;;;;;;;83.95;8.82;;;30.90;87.70;;;;;;5067859;28;20103;-78
2022/06/16 08:29:07;;;;;;;17.15;3.20;;;30.90;86.80;;;;;;5075202;28;20068;-85
2022/06/16 08:31:35;;;;;;;156.63;12.93;;;31.10;86.70;;;;;;5083607;28;20040;-79
2022/06/16 08:34:01;;;;;;;17.83;2.80;;;31.00;87.70;;;;;;5068721;28;20032;-81
2022/06/16 08:36:28;;;;;;;101.72;8.52;;;31.20;86.10;;;;;;5079103;28;20642;-81
2022/06/16 08:38:58;;;;;;;20.42;4.32;;;31.10;84.60;;;;;;5072899;28;20033;-87
2022/06/16 08:41:38;;;;;;;130.32;11.63;;;31.20;84.60;;;;;;5090188;28;20028;-81
2022/06/16 08:44:17;;;;;;;21.05;3.90;;;31.30;85.10;;;;;;5077486;28;20041;-80
2022/06/16 08:46:58;;;;;;;32.88;4.68;;;31.30;84.20;;;;;;5065130;28;20067;-81
2022/06/16 08:49:57;;;;;;;14.93;3.63;;;31.50;84.70;;;;;;5061497;28;20037;-77
2022/06/16 08:52:47;;;;;;;326.67;25.45;;;31.60;83.90;;;;;;5072017;28;20024;-82
2022/06/16 08:55:49;;;;;;;224.70;18.38;;;31.30;84.40;;;;;;5036550;28;20047;-82
2022/06/16 08:58:34;;;;;;;167.15;16.40;;;31.30;84.70;;;;;;5080352;28;20109;-84
2022/06/16 09:01:12;;;;;;;31.25;4.40;;;31.30;85.30;;;;;;5062380;28;20124;-78
2022/06/16 09:03:45;;;;;;;256.60;23.75;;;31.40;86.20;;;;;;5080790;28;20041;-83
2022/06/16 09:06:43;;;;;;;397.15;36.50;;;31.50;86.60;;;;;;5064176;28;20048;-85
2022/06/16 09:12:33;;;;;;;944.30;92.80;;;31.80;85.90;;;;;;5025555;28;20043;-81
2022/06/16 09:15:11;;;;;;;57.58;5.30;;;31.70;86.40;;;;;;5055483;28;20096;-88
2022/06/16 09:18:11;;;;;;;199.68;15.70;;;31.80;86.60;;;;;;5073186;28;20067;-77
2022/06/16 09:20:53;;;;;;;47.90;5.25;;;31.80;87.30;;;;;;5085556;28;20044;-79
2022/06/16 09:23:48;;;;;;;63.25;6.68;;;31.80;86.80;;;;;;5044462;28;20033;-77
2022/06/16 09:26:38;;;;;;;94.95;7.60;;;31.80;85.80;;;;;;5023648;28;20044;-80
2022/06/16 09:29:19;;;;;;;212.85;16.90;;;31.70;86.60;;;;;;5046198;28;20103;-81
2022/06/16 09:31:59;;;;;;;114.68;10.85;;;32.00;86.20;;;;;;5065759;28;20037;-83
2022/06/16 09:34:43;;;;;;;321.45;26.70;;;32.00;86.20;;;;;;5046310;28;20092;-78
2022/06/16 09:37:19;;;;;;;133.23;11.50;;;32.10;86.10;;;;;;5082270;28;20126;-80
2022/06/16 09:39:57;;;;;;;185.48;16.50;;;32.20;86.00;;;;;;5048782;28;20034;-83
2022/06/16 09:42:32;;;;;;;422.75;38.72;;;32.60;85.90;;;;;;5073767;28;20066;-78
2022/06/16 09:45:09;;;;;;;220.93;18.23;;;32.50;85.30;;;;;;5063069;28;20045;-86
2022/06/16 09:48:05;;;;;;;104.47;8.52;;;32.70;85.10;;;;;;5086466;28;20097;-82
2022/06/16 09:51:11;;;;;;;57.35;6.32;;;32.60;85.10;;;;;;5084064;28;20037;-82
2022/06/16 09:53:58;;;;;;;537.78;48.65;;;32.90;84.70;;;;;;5076116;28;20036;-77
2022/06/16 09:56:37;;;;;;;11.02;2.42;;;32.90;84.40;;;;;;5042820;28;20064;-76
2022/06/16 09:59:11;;;;;;;100.18;9.70;;;32.80;83.80;;;;;;5045975;28;20036;-79
2022/06/16 10:01:48;;;;;;;96.88;8.18;;;33.00;84.50;;;;;;5074845;28;20065;-77
2022/06/16 10:04:14;;;;;;;23.67;3.40;;;33.40;83.80;;;;;;5049193;28;20041;-80
2022/06/16 10:07:07;;;;;;;35.08;4.40;;;33.50;83.40;;;;;;5058227;28;20111;-80
2022/06/16 10:09:40;;;;;;;9.32;1.92;;;33.50;83.40;;;;;;5064203;28;20033;-77
2022/06/16 10:12:15;;;;;;;21.25;3.22;;;33.40;83.10;;;;;;5042510;28;20736;-75
2022/06/16 10:14:59;;;;;;;29.85;4.03;;;33.30;82.90;;;;;;5056491;28;20029;-78
2022/06/16 10:17:25;;;;;;;20.92;3.05;;;33.40;83.50;;;;;;5053315;28;20119;-81
2022/06/16 10:19:52;;;;;;;14.90;2.92;;;33.50;82.30;;;;;;5043760;28;20129;-77
2022/06/16 10:22:21;;;;;;;19.17;3.50;;;33.70;82.20;;;;;;5043334;28;20358;-82
2022/06/16 10:25:00;;;;;;;18.58;3.08;;;34.00;82.80;;;;;;5032346;28;20064;-77
2022/06/16 10:27:35;;;;;;;17.20;3.35;;;34.30;81.80;;;;;;5040185;28;20040;-77
2022/06/16 10:30:05;;;;;;;20.90;4.28;;;34.00;82.40;;;;;;5092809;28;20064;-76
2022/06/16 10:32:44;;;;;;;13.48;2.22;;;33.90;83.80;;;;;;5066547;28;20032;-83
2022/06/16 10:35:18;;;;;;;11.63;2.50;;;33.80;81.40;;;;;;5047462;28;20040;-79
2022/06/16 10:37:47;;;;;;;11.63;2.70;;;33.90;81.40;;;;;;5049218;28;20062;-79
2022/06/16 10:40:24;;;;;;;49.53;5.75;;;34.00;81.60;;;;;;5080523;28;20037;-78
2022/06/16 10:43:15;;;;;;;30.38;5.03;;;34.30;82.40;;;;;;5050375;28;20059;-78
2022/06/16 10:45:42;;;;;;;7.25;2.35;;;34.80;82.60;;;;;;5054286;28;20104;-78
2022/06/16 10:48:25;;;;;;;11.45;2.70;;;34.60;80.50;;;;;;5070406;28;20124;-78
2022/06/16 10:51:13;;;;;;;40.97;5.20;;;34.50;80.10;;;;;;5069757;28;20041;-77
2022/06/16 10:53:41;;;;;;;361.05;41.58;;;34.50;80.80;;;;;;5081857;28;20034;-84
2022/06/16 10:56:21;;;;;;;10.80;2.22;;;34.30;81.00;;;;;;5049550;28;20053;-78
2022/06/16 10:59:27;;;;;;;15.05;2.78;;;34.40;80.80;;;;;;5046693;28;20037;-83
2022/06/16 11:02:11;;;;;;;6.03;2.03;;;33.80;82.20;;;;;;5048329;28;20041;-77
2022/06/16 11:04:41;;;;;;;22.35;2.88;;;34.20;81.80;;;;;;5048093;28;20058;-83
2022/06/16 11:07:12;;;;;;;19.98;3.40;;;34.20;83.50;;;;;;5049888;28;20044;-79
2022/06/16 11:09:38;;;;;;;44.50;5.37;;;34.80;84.40;;;;;;5049232;28;20074;-79
2022/06/16 11:12:13;;;;;;;73.35;6.88;;;35.10;85.90;;;;;;5043987;28;20292;-84
2022/06/16 11:14:59;;;;;;;21.25;3.63;;;35.50;83.80;;;;;;5044292;28;20037;-76
2022/06/16 11:17:26;;;;;;;29.17;4.97;;;35.80;85.00;;;;;;5062932;28;20067;-78
2022/06/16 11:20:03;;;;;;;283.80;22.02;;;35.80;88.80;;;;;;5045934;28;20037;-80
2022/06/16 11:22:39;;;;;;;117.20;13.30;;;35.60;91.00;;;;;;5082131;28;20435;-76
2022/06/16 11:25:26;;;;;;;36.83;5.32;;;35.40;91.50;;;;;;5041947;28;20056;-78
2022/06/16 11:27:59;;;;;;;32.72;4.88;;;35.30;92.00;;;;;;5038018;28;20041;-79
2022/06/16 11:30:47;;;;;;;42.17;4.63;;;35.50;91.80;;;;;;5073222;28;20049;-79
2022/06/16 11:36:39;;;;;;;12.38;3.20;;;35.60;91.90;;;;;;5044656;28;20514;-81
2022/06/16 11:39:22;;;;;;;12.75;2.80;;;35.50;91.30;;;;;;5043102;28;20084;-78
2022/06/16 11:41:51;;;;;;;17.80;2.63;;;35.60;91.50;;;;;;5048205;28;20367;-81
2022/06/16 11:44:58;;;;;;;9.10;2.75;;;35.50;91.00;;;;;;5061608;28;20053;-79
2022/06/16 11:47:36;;;;;;;9.27;3.05;;;35.30;91.50;;;;;;5033979;28;20041;-82
2022/06/16 11:50:07;;;;;;;7.78;2.70;;;35.30;91.20;;;;;;5073898;28;20048;-80
2022/06/16 11:52:41;;;;;;;9.48;2.38;;;35.80;91.20;;;;;;5042991;28;20045;-76
2022/06/16 11:55:19;;;;;;;9.75;3.08;;;36.00;91.00;;;;;;5039072;28;20030;-76
2022/06/16 11:58:04;;;;;;;11.70;2.90;;;35.80;90.80;;;;;;5041477;28;20814;-77
2022/06/16 12:00:38;;;;;;;9.38;2.95;;;36.20;91.10;;;;;;5056251;28;20118;-76
2022/06/16 12:03:32;;;;;;;11.60;3.20;;;35.80;91.60;;;;;;5054631;28;20029;-76
2022/06/16 12:06:15;;;;;;;7.18;2.75;;;35.80;91.60;;;;;;5071781;28;20044;-76
2022/06/16 12:09:06;;;;;;;11.20;2.92;;;36.30;91.50;;;;;;5041653;28;20095;-77
2022/06/16 12:11:54;;;;;;;12.80;2.72;;;36.70;91.50;;;;;;5074542;28;20577;-76
2022/06/16 12:14:47;;;;;;;9.10;2.80;;;36.50;91.00;;;;;;5076926;28;20382;-76
2022/06/16 12:17:42;;;;;;;7.25;2.90;;;36.70;90.80;;;;;;5076934;28;20616;-77
2022/06/16 12:20:49;;;;;;;8.60;2.78;;;36.90;91.20;;;;;;5077370;28;20696;-76
2022/06/16 12:23:51;;;;;;;12.80;3.13;;;36.80;90.70;;;;;;5054549;28;20041;-81
2022/06/16 12:26:28;;;;;;;10.18;3.22;;;35.30;91.30;;;;;;5055791;28;20068;-76
2022/06/16 12:29:36;;;;;;;16.90;3.53;;;35.80;90.50;;;;;;5041736;28;20118;-74
2022/06/16 12:32:16;;;;;;;9.15;2.88;;;36.10;91.10;;;;;;5043205;28;20029;-77
2022/06/16 12:35:12;;;;;;;11.98;2.72;;;35.80;89.70;;;;;;5050076;28;20040;-75
2022/06/16 12:37:48;;;;;;;40.22;6.13;;;35.80;90.50;;;;;;5057725;28;20132;-79
2022/06/16 12:40:30;;;;;;;81.50;8.48;;;36.10;91.00;;;;;;5080062;28;20563;-81
2022/06/16 12:43:02;;;;;;;9.50;3.33;;;36.50;90.80;;;;;;5051844;28;20579;-75
2022/06/16 12:45:46;;;;;;;8.98;2.70;;;36.70;90.20;;;;;;5071178;28;20128;-78
2022/06/16 12:48:51;;;;;;;9.20;2.50;;;36.50;90.60;;;;;;5071980;28;20050;-75
2022/06/16 12:51:22;;;;;;;12.68;2.65;;;36.60;90.00;;;;;;5047111;28;20060;-76
2022/06/16 12:53:52;;;;;;;;;;;35.60;90.60;;;;;;5070518;28;20072;-75
2022/06/16 12:56:24;;;;;;;11.70;2.63;;;35.60;90.70;;;;;;5078810;28;19940;-78
2022/06/16 12:59:14;;;;;;;15.65;3.13;;;35.60;90.60;;;;;;5090254;28;20041;-74
2022/06/16 13:01:41;;;;;;;21.75;3.05;;;35.80;89.20;;;;;;5061348;28;20037;-77
2022/06/16 13:04:21;;;;;;;11.43;2.17;;;35.70;85.10;;;;;;5079481;28;20052;-76
2022/06/16 13:06:47;;;;;;;24.42;2.13;;;36.30;83.00;;;;;;5069939;28;20651;-75
2022/06/16 13:09:14;;;;;;;9.75;1.92;;;36.60;82.80;;;;;;5066425;28;20090;-78
2022/06/16 13:11:49;;;;;;;20.85;2.90;;;36.40;80.80;;;;;;5081356;28;20037;-77
2022/06/16 13:14:31;;;;;;;98.55;8.98;;;36.50;81.10;;;;;;5083007;28;20041;-76
2022/06/16 13:17:02;;;;;;;94.80;12.65;;;37.20;85.00;;;;;;5061342;28;20235;-79
2022/06/16 13:19:50;;;;;;;76.82;9.38;;;37.40;88.40;;;;;;5041488;28;20136;-71
2022/06/16 13:22:33;;;;;;;186.07;15.90;;;36.90;89.70;;;;;;5044321;28;20594;-75
2022/06/16 13:25:06;;;;;;;62.72;6.38;;;37.10;89.50;;;;;;5042869;28;20045;-77
2022/06/16 13:27:52;;;;;;;161.88;16.58;;;37.30;88.60;;;;;;5045993;28;20032;-75
2022/06/16 13:30:44;;;;;;;90.93;9.55;;;37.50;89.50;;;;;;5058167;28;20037;-75
2022/06/16 13:33:20;;;;;;;6.25;2.20;;;37.20;89.10;;;;;;5031669;28;20047;-75
2022/06/16 13:35:51;;;;;;;100.18;9.35;;;36.90;87.10;;;;;;5052943;28;20039;-79
2022/06/16 13:38:18;;;;;;;14.80;2.92;;;37.40;85.50;;;;;;5032705;28;20489;-75
2022/06/16 13:40:45;;;;;;;42.47;6.07;;;36.90;87.40;;;;;;5034375;28;20041;-74